sensor_id;sensor_type;location;lat;lon;timestamp;P1;durP1;ratioP1;P2;durP2;ratioP2
58727;SDS011;44505;43.240;0.070;2022-08-11T00:02:13;4.15;;;2.60;;
58727;SDS011;44505;43.240;0.070;2022-08-11T00:04:39;2.92;;;2.72;;
58727;SDS011;44505;43.240;0.070;2022-08-11T00:07:06;3.65;;;2.05;;
58727;SDS011;44505;43.240;0.070;2022-08-11T00:09:34;2.90;;;2.70;;
58727;SDS011;44505;43.240;0.070;2022-08-11T00:12:00;4.88;;;3.35;;
58727;SDS011;44505;43.240;0.070;2022-08-11T00:14:29;3.70;;;2.50;;
58727;SDS011;44505;43.240;0.070;2022-08-11T00:17:00;2.83;;;2.63;;
58727;SDS011;44505;43.240;0.070;2022-08-11T00:19:27;3.10;;;2.58;;
58727;SDS011;44505;43.240;0.070;2022-08-11T00:21:53;2.92;;;2.00;;
58727;SDS011;44505;43.240;0.070;2022-08-11T00:24:19;4.28;;;2.75;;
58727;SDS011;44505;43.240;0.070;2022-08-11T00:26:50;3.67;;;2.50;;
58727;SDS011;44505;43.240;0.070;2022-08-11T00:29:17;2.80;;;2.08;;
58727;SDS011;44505;43.240;0.070;2022-08-11T00:31:46;4.32;;;3.13;;
58727;SDS011;44505;43.240;0.070;2022-08-11T00:34:13;4.95;;;3.05;;
58727;SDS011;44505;43.240;0.070;2022-08-11T00:36:42;3.35;;;2.95;;
58727;SDS011;44505;43.240;0.070;2022-08-11T00:39:09;3.28;;;2.65;;
58727;SDS011;44505;43.240;0.070;2022-08-11T00:41:44;2.95;;;2.67;;
58727;SDS011;44505;43.240;0.070;2022-08-11T00:49:08;3.78;;;2.35;;
58727;SDS011;44505;43.240;0.070;2022-08-11T00:51:57;3.50;;;2.60;;
58727;SDS011;44505;43.240;0.070;2022-08-11T01:27:35;3.30;;;2.55;;
58727;SDS011;44505;43.240;0.070;2022-08-11T01:46:03;3.40;;;2.97;;
58727;SDS011;44505;43.240;0.070;2022-08-11T01:48:43;3.50;;;2.95;;
58727;SDS011;44505;43.240;0.070;2022-08-11T01:51:23;3.10;;;2.90;;
58727;SDS011;44505;43.240;0.070;2022-08-11T01:53:53;2.38;;;2.17;;
58727;SDS011;44505;43.240;0.070;2022-08-11T01:59:38;2.40;;;1.95;;
58727;SDS011;44505;43.240;0.070;2022-08-11T02:05:02;3.20;;;2.45;;
58727;SDS011;44505;43.240;0.070;2022-08-11T02:13:28;6.40;;;2.60;;
58727;SDS011;44505;43.240;0.070;2022-08-11T02:15:55;4.97;;;2.38;;
58727;SDS011;44505;43.240;0.070;2022-08-11T02:18:33;5.85;;;2.78;;
58727;SDS011;44505;43.240;0.070;2022-08-11T02:21:23;4.75;;;2.33;;
58727;SDS011;44505;43.240;0.070;2022-08-11T02:24:13;3.95;;;2.47;;
58727;SDS011;44505;43.240;0.070;2022-08-11T02:27:17;3.38;;;2.72;;
58727;SDS011;44505;43.240;0.070;2022-08-11T02:29:54;3.72;;;2.63;;
58727;SDS011;44505;43.240;0.070;2022-08-11T02:32:31;3.58;;;2.83;;
58727;SDS011;44505;43.240;0.070;2022-08-11T02:35:27;4.82;;;2.75;;
58727;SDS011;44505;43.240;0.070;2022-08-11T02:46:50;4.25;;;2.35;;
58727;SDS011;44505;43.240;0.070;2022-08-11T02:52:14;3.83;;;2.45;;
58727;SDS011;44505;43.240;0.070;2022-08-11T02:57:29;3.33;;;2.30;;
58727;SDS011;44505;43.240;0.070;2022-08-11T03:10:09;4.00;;;3.55;;
58727;SDS011;44505;43.240;0.070;2022-08-11T03:12:39;3.00;;;2.70;;
58727;SDS011;44505;43.240;0.070;2022-08-11T03:18:14;3.63;;;2.63;;
58727;SDS011;44505;43.240;0.070;2022-08-11T03:20:45;6.28;;;2.60;;
58727;SDS011;44505;43.240;0.070;2022-08-11T03:23:17;4.90;;;2.95;;
58727;SDS011;44505;43.240;0.070;2022-08-11T03:28:35;4.97;;;2.50;;
58727;SDS011;44505;43.240;0.070;2022-08-11T03:31:09;4.65;;;2.85;;
58727;SDS011;44505;43.240;0.070;2022-08-11T03:33:43;4.97;;;2.80;;
58727;SDS011;44505;43.240;0.070;2022-08-11T03:57:00;20.60;;;16.00;;
58727;SDS011;44505;43.240;0.070;2022-08-11T04:15:50;4.35;;;3.08;;
58727;SDS011;44505;43.240;0.070;2022-08-11T04:21:08;3.35;;;2.72;;
58727;SDS011;44505;43.240;0.070;2022-08-11T04:42:50;7.53;;;3.13;;
58727;SDS011;44505;43.240;0.070;2022-08-11T04:45:34;5.45;;;3.25;;
58727;SDS011;44505;43.240;0.070;2022-08-11T04:56:37;8.70;;;3.10;;
58727;SDS011;44505;43.240;0.070;2022-08-11T05:13:05;4.65;;;3.15;;
58727;SDS011;44505;43.240;0.070;2022-08-11T05:16:01;5.90;;;3.40;;
58727;SDS011;44505;43.240;0.070;2022-08-11T05:18:51;7.05;;;3.45;;
58727;SDS011;44505;43.240;0.070;2022-08-11T05:21:35;4.47;;;2.90;;
58727;SDS011;44505;43.240;0.070;2022-08-11T05:24:25;4.50;;;2.97;;
58727;SDS011;44505;43.240;0.070;2022-08-11T05:27:13;9.68;;;3.72;;
58727;SDS011;44505;43.240;0.070;2022-08-11T05:30:04;6.13;;;2.92;;
58727;SDS011;44505;43.240;0.070;2022-08-11T05:32:56;5.53;;;2.95;;
58727;SDS011;44505;43.240;0.070;2022-08-11T05:35:48;5.65;;;3.70;;
58727;SDS011;44505;43.240;0.070;2022-08-11T05:38:19;6.88;;;3.63;;
58727;SDS011;44505;43.240;0.070;2022-08-11T05:41:04;4.63;;;3.60;;
58727;SDS011;44505;43.240;0.070;2022-08-11T05:43:48;4.82;;;3.05;;
58727;SDS011;44505;43.240;0.070;2022-08-11T05:46:41;5.28;;;2.92;;
58727;SDS011;44505;43.240;0.070;2022-08-11T05:49:28;3.83;;;2.88;;
58727;SDS011;44505;43.240;0.070;2022-08-11T05:52:16;4.95;;;3.20;;
58727;SDS011;44505;43.240;0.070;2022-08-11T05:55:04;5.75;;;3.63;;
58727;SDS011;44505;43.240;0.070;2022-08-11T05:57:48;5.82;;;3.50;;
58727;SDS011;44505;43.240;0.070;2022-08-11T06:00:14;3.95;;;3.28;;
58727;SDS011;44505;43.240;0.070;2022-08-11T06:02:43;8.60;;;4.30;;
58727;SDS011;44505;43.240;0.070;2022-08-11T06:05:10;6.38;;;3.70;;
58727;SDS011;44505;43.240;0.070;2022-08-11T06:07:36;6.60;;;3.30;;
58727;SDS011;44505;43.240;0.070;2022-08-11T06:10:02;4.78;;;3.45;;
58727;SDS011;44505;43.240;0.070;2022-08-11T06:12:31;4.05;;;3.65;;
58727;SDS011;44505;43.240;0.070;2022-08-11T06:15:04;3.80;;;2.95;;
58727;SDS011;44505;43.240;0.070;2022-08-11T06:17:31;6.47;;;3.58;;
58727;SDS011;44505;43.240;0.070;2022-08-11T06:20:06;3.73;;;3.40;;
58727;SDS011;44505;43.240;0.070;2022-08-11T06:22:41;4.88;;;4.32;;
58727;SDS011;44505;43.240;0.070;2022-08-11T06:25:07;4.63;;;4.18;;
58727;SDS011;44505;43.240;0.070;2022-08-11T06:27:33;4.35;;;3.55;;
58727;SDS011;44505;43.240;0.070;2022-08-11T06:29:59;4.72;;;3.95;;
58727;SDS011;44505;43.240;0.070;2022-08-11T06:32:30;6.07;;;3.17;;
58727;SDS011;44505;43.240;0.070;2022-08-11T06:37:44;5.13;;;3.70;;
58727;SDS011;44505;43.240;0.070;2022-08-11T06:43:05;4.90;;;3.40;;
58727;SDS011;44505;43.240;0.070;2022-08-11T06:45:54;6.32;;;3.70;;
58727;SDS011;44505;43.240;0.070;2022-08-11T06:48:22;4.63;;;3.50;;
58727;SDS011;44505;43.240;0.070;2022-08-11T06:50:52;4.40;;;3.25;;
58727;SDS011;44505;43.240;0.070;2022-08-11T06:56:11;8.98;;;4.88;;
58727;SDS011;44505;43.240;0.070;2022-08-11T06:58:56;6.53;;;3.80;;
58727;SDS011;44505;43.240;0.070;2022-08-11T07:02:04;8.13;;;4.30;;
58727;SDS011;44505;43.240;0.070;2022-08-11T07:07:17;5.68;;;3.55;;
58727;SDS011;44505;43.240;0.070;2022-08-11T07:12:58;5.68;;;3.50;;
58727;SDS011;44505;43.240;0.070;2022-08-11T07:15:42;6.47;;;4.93;;
58727;SDS011;44505;43.240;0.070;2022-08-11T07:18:10;5.80;;;4.10;;
58727;SDS011;44505;43.240;0.070;2022-08-11T07:21:04;5.90;;;4.20;;
58727;SDS011;44505;43.240;0.070;2022-08-11T07:23:49;6.00;;;4.32;;
58727;SDS011;44505;43.240;0.070;2022-08-11T07:26:42;4.85;;;4.35;;
58727;SDS011;44505;43.240;0.070;2022-08-11T07:29:27;8.15;;;4.13;;
58727;SDS011;44505;43.240;0.070;2022-08-11T07:31:53;7.00;;;4.97;;
58727;SDS011;44505;43.240;0.070;2022-08-11T07:34:20;5.30;;;4.80;;
58727;SDS011;44505;43.240;0.070;2022-08-11T07:36:51;6.40;;;4.60;;
58727;SDS011;44505;43.240;0.070;2022-08-11T07:39:24;6.10;;;4.10;;
58727;SDS011;44505;43.240;0.070;2022-08-11T07:41:51;5.88;;;4.70;;
58727;SDS011;44505;43.240;0.070;2022-08-11T07:44:17;5.22;;;4.10;;
58727;SDS011;44505;43.240;0.070;2022-08-11T07:46:46;8.18;;;4.75;;
58727;SDS011;44505;43.240;0.070;2022-08-11T07:49:31;11.85;;;5.20;;
58727;SDS011;44505;43.240;0.070;2022-08-11T07:52:15;7.20;;;5.47;;
58727;SDS011;44505;43.240;0.070;2022-08-11T07:54:58;5.78;;;4.80;;
58727;SDS011;44505;43.240;0.070;2022-08-11T07:57:24;4.72;;;4.20;;
58727;SDS011;44505;43.240;0.070;2022-08-11T08:00:09;5.68;;;4.32;;
58727;SDS011;44505;43.240;0.070;2022-08-11T08:02:53;5.93;;;3.97;;
58727;SDS011;44505;43.240;0.070;2022-08-11T08:05:40;7.78;;;4.07;;
58727;SDS011;44505;43.240;0.070;2022-08-11T08:08:24;4.60;;;3.90;;
58727;SDS011;44505;43.240;0.070;2022-08-11T08:11:08;5.78;;;3.83;;
58727;SDS011;44505;43.240;0.070;2022-08-11T08:13:53;6.97;;;3.97;;
58727;SDS011;44505;43.240;0.070;2022-08-11T08:16:37;3.92;;;3.13;;
58727;SDS011;44505;43.240;0.070;2022-08-11T08:19:22;5.07;;;3.25;;
58727;SDS011;44505;43.240;0.070;2022-08-11T08:21:47;5.43;;;3.80;;
58727;SDS011;44505;43.240;0.070;2022-08-11T08:24:13;5.40;;;3.80;;
58727;SDS011;44505;43.240;0.070;2022-08-11T08:26:39;5.03;;;3.40;;
58727;SDS011;44505;43.240;0.070;2022-08-11T08:29:28;4.70;;;3.50;;
58727;SDS011;44505;43.240;0.070;2022-08-11T08:32:14;3.90;;;3.25;;
58727;SDS011;44505;43.240;0.070;2022-08-11T08:34:41;8.10;;;3.53;;
58727;SDS011;44505;43.240;0.070;2022-08-11T08:37:06;6.70;;;3.67;;
58727;SDS011;44505;43.240;0.070;2022-08-11T08:39:33;3.40;;;3.10;;
58727;SDS011;44505;43.240;0.070;2022-08-11T08:42:03;5.20;;;3.42;;
58727;SDS011;44505;43.240;0.070;2022-08-11T08:44:32;3.95;;;3.28;;
58727;SDS011;44505;43.240;0.070;2022-08-11T08:46:59;4.15;;;3.65;;
58727;SDS011;44505;43.240;0.070;2022-08-11T08:49:31;7.53;;;4.50;;
58727;SDS011;44505;43.240;0.070;2022-08-11T08:51:59;6.68;;;4.50;;
58727;SDS011;44505;43.240;0.070;2022-08-11T08:54:35;4.57;;;3.20;;
58727;SDS011;44505;43.240;0.070;2022-08-11T08:57:03;4.90;;;3.40;;
58727;SDS011;44505;43.240;0.070;2022-08-11T08:59:30;5.57;;;3.45;;
58727;SDS011;44505;43.240;0.070;2022-08-11T09:01:58;3.75;;;3.42;;
58727;SDS011;44505;43.240;0.070;2022-08-11T09:04:24;3.80;;;3.50;;
58727;SDS011;44505;43.240;0.070;2022-08-11T09:06:51;4.63;;;3.97;;
58727;SDS011;44505;43.240;0.070;2022-08-11T09:09:19;4.80;;;3.63;;
58727;SDS011;44505;43.240;0.070;2022-08-11T09:11:46;5.25;;;3.38;;
58727;SDS011;44505;43.240;0.070;2022-08-11T09:14:18;5.15;;;3.20;;
58727;SDS011;44505;43.240;0.070;2022-08-11T09:16:44;5.95;;;3.15;;
58727;SDS011;44505;43.240;0.070;2022-08-11T09:19:12;6.60;;;3.42;;
58727;SDS011;44505;43.240;0.070;2022-08-11T09:21:42;3.88;;;3.53;;
58727;SDS011;44505;43.240;0.070;2022-08-11T09:24:07;4.63;;;3.55;;
58727;SDS011;44505;43.240;0.070;2022-08-11T09:26:51;3.70;;;3.38;;
58727;SDS011;44505;43.240;0.070;2022-08-11T09:29:24;4.88;;;3.90;;
58727;SDS011;44505;43.240;0.070;2022-08-11T09:31:51;3.60;;;3.30;;
58727;SDS011;44505;43.240;0.070;2022-08-11T09:34:17;4.32;;;3.40;;
58727;SDS011;44505;43.240;0.070;2022-08-11T09:36:43;5.10;;;3.53;;
58727;SDS011;44505;43.240;0.070;2022-08-11T09:39:28;5.15;;;3.72;;
58727;SDS011;44505;43.240;0.070;2022-08-11T09:42:12;4.15;;;3.75;;
58727;SDS011;44505;43.240;0.070;2022-08-11T09:44:53;4.27;;;3.77;;
58727;SDS011;44505;43.240;0.070;2022-08-11T09:47:26;4.30;;;3.55;;
58727;SDS011;44505;43.240;0.070;2022-08-11T09:49:55;3.90;;;3.60;;
58727;SDS011;44505;43.240;0.070;2022-08-11T09:52:39;4.43;;;3.60;;
58727;SDS011;44505;43.240;0.070;2022-08-11T09:55:21;3.97;;;3.65;;
58727;SDS011;44505;43.240;0.070;2022-08-11T09:57:46;5.53;;;3.70;;
58727;SDS011;44505;43.240;0.070;2022-08-11T10:00:32;6.88;;;4.18;;
58727;SDS011;44505;43.240;0.070;2022-08-11T10:03:01;4.90;;;3.60;;
58727;SDS011;44505;43.240;0.070;2022-08-11T10:05:31;6.55;;;3.80;;
58727;SDS011;44505;43.240;0.070;2022-08-11T10:08:16;3.78;;;3.38;;
58727;SDS011;44505;43.240;0.070;2022-08-11T10:10:43;4.68;;;3.67;;
58727;SDS011;44505;43.240;0.070;2022-08-11T10:13:18;5.75;;;3.78;;
58727;SDS011;44505;43.240;0.070;2022-08-11T10:15:49;5.85;;;3.65;;
58727;SDS011;44505;43.240;0.070;2022-08-11T10:18:17;4.47;;;4.07;;
58727;SDS011;44505;43.240;0.070;2022-08-11T10:21:14;6.28;;;3.83;;
58727;SDS011;44505;43.240;0.070;2022-08-11T10:23:39;5.25;;;3.60;;
58727;SDS011;44505;43.240;0.070;2022-08-11T10:26:24;4.35;;;3.45;;
58727;SDS011;44505;43.240;0.070;2022-08-11T10:29:10;5.20;;;3.78;;
58727;SDS011;44505;43.240;0.070;2022-08-11T10:31:55;4.63;;;3.47;;
58727;SDS011;44505;43.240;0.070;2022-08-11T10:34:39;4.07;;;3.78;;
58727;SDS011;44505;43.240;0.070;2022-08-11T10:37:05;4.97;;;3.78;;
58727;SDS011;44505;43.240;0.070;2022-08-11T10:39:31;4.93;;;3.70;;
58727;SDS011;44505;43.240;0.070;2022-08-11T10:41:57;5.47;;;3.53;;
58727;SDS011;44505;43.240;0.070;2022-08-11T10:44:42;5.43;;;3.50;;
58727;SDS011;44505;43.240;0.070;2022-08-11T10:47:09;6.88;;;3.63;;
58727;SDS011;44505;43.240;0.070;2022-08-11T10:49:54;3.97;;;3.50;;
58727;SDS011;44505;43.240;0.070;2022-08-11T10:52:38;5.75;;;3.92;;
58727;SDS011;44505;43.240;0.070;2022-08-11T10:55:23;5.25;;;3.78;;
58727;SDS011;44505;43.240;0.070;2022-08-11T10:58:08;5.35;;;3.63;;
58727;SDS011;44505;43.240;0.070;2022-08-11T11:00:52;6.10;;;3.42;;
58727;SDS011;44505;43.240;0.070;2022-08-11T11:03:21;15.00;;;3.75;;
58727;SDS011;44505;43.240;0.070;2022-08-11T11:05:49;4.15;;;3.65;;
58727;SDS011;44505;43.240;0.070;2022-08-11T11:08:15;4.40;;;3.80;;
58727;SDS011;44505;43.240;0.070;2022-08-11T11:11:00;4.78;;;3.60;;
58727;SDS011;44505;43.240;0.070;2022-08-11T11:13:26;5.35;;;3.45;;
58727;SDS011;44505;43.240;0.070;2022-08-11T11:16:11;7.63;;;5.03;;
58727;SDS011;44505;43.240;0.070;2022-08-11T11:19:09;6.47;;;5.53;;
58727;SDS011;44505;43.240;0.070;2022-08-11T11:21:35;18.58;;;15.98;;
58727;SDS011;44505;43.240;0.070;2022-08-11T11:24:12;33.45;;;24.98;;
58727;SDS011;44505;43.240;0.070;2022-08-11T11:26:52;19.35;;;16.45;;
58727;SDS011;44505;43.240;0.070;2022-08-11T11:29:38;10.18;;;7.70;;
58727;SDS011;44505;43.240;0.070;2022-08-11T11:37:31;4.00;;;3.20;;
58727;SDS011;44505;43.240;0.070;2022-08-11T11:39:59;4.13;;;3.40;;
58727;SDS011;44505;43.240;0.070;2022-08-11T11:42:25;4.25;;;3.80;;
58727;SDS011;44505;43.240;0.070;2022-08-11T11:44:50;4.50;;;4.10;;
58727;SDS011;44505;43.240;0.070;2022-08-11T11:47:16;10.60;;;9.60;;
58727;SDS011;44505;43.240;0.070;2022-08-11T11:49:47;4.25;;;3.83;;
58727;SDS011;44505;43.240;0.070;2022-08-11T11:52:17;3.72;;;3.45;;
58727;SDS011;44505;43.240;0.070;2022-08-11T11:54:46;3.60;;;3.28;;
58727;SDS011;44505;43.240;0.070;2022-08-11T11:57:16;4.60;;;2.97;;
58727;SDS011;44505;43.240;0.070;2022-08-11T12:00:00;4.90;;;3.20;;
58727;SDS011;44505;43.240;0.070;2022-08-11T12:02:44;4.47;;;3.63;;
58727;SDS011;44505;43.240;0.070;2022-08-11T12:05:10;5.80;;;3.53;;
58727;SDS011;44505;43.240;0.070;2022-08-11T12:07:36;8.27;;;3.80;;
58727;SDS011;44505;43.240;0.070;2022-08-11T12:10:21;3.47;;;3.17;;
58727;SDS011;44505;43.240;0.070;2022-08-11T12:12:46;5.33;;;3.60;;
58727;SDS011;44505;43.240;0.070;2022-08-11T12:15:30;3.83;;;3.38;;
58727;SDS011;44505;43.240;0.070;2022-08-11T12:17:56;3.73;;;3.17;;
58727;SDS011;44505;43.240;0.070;2022-08-11T12:20:22;4.80;;;4.40;;
58727;SDS011;44505;43.240;0.070;2022-08-11T12:22:48;18.07;;;15.20;;
58727;SDS011;44505;43.240;0.070;2022-08-11T12:25:33;4.47;;;4.03;;
58727;SDS011;44505;43.240;0.070;2022-08-11T12:28:17;4.13;;;3.35;;
58727;SDS011;44505;43.240;0.070;2022-08-11T12:30:45;3.35;;;3.05;;
58727;SDS011;44505;43.240;0.070;2022-08-11T12:33:11;3.90;;;3.33;;
58727;SDS011;44505;43.240;0.070;2022-08-11T12:35:37;5.53;;;3.10;;
58727;SDS011;44505;43.240;0.070;2022-08-11T12:38:03;5.10;;;3.37;;
58727;SDS011;44505;43.240;0.070;2022-08-11T12:40:29;3.83;;;3.50;;
58727;SDS011;44505;43.240;0.070;2022-08-11T12:43:14;3.35;;;2.92;;
58727;SDS011;44505;43.240;0.070;2022-08-11T12:45:59;3.63;;;3.15;;
58727;SDS011;44505;43.240;0.070;2022-08-11T12:48:27;4.18;;;2.80;;
58727;SDS011;44505;43.240;0.070;2022-08-11T12:51:15;6.40;;;2.80;;
58727;SDS011;44505;43.240;0.070;2022-08-11T12:56:27;3.55;;;3.20;;
58727;SDS011;44505;43.240;0.070;2022-08-11T12:59:13;10.15;;;4.10;;
58727;SDS011;44505;43.240;0.070;2022-08-11T13:01:57;5.70;;;3.30;;
58727;SDS011;44505;43.240;0.070;2022-08-11T13:04:41;4.63;;;3.58;;
58727;SDS011;44505;43.240;0.070;2022-08-11T13:07:26;4.55;;;3.45;;
58727;SDS011;44505;43.240;0.070;2022-08-11T13:09:52;5.28;;;3.45;;
58727;SDS011;44505;43.240;0.070;2022-08-11T13:12:18;4.60;;;3.37;;
58727;SDS011;44505;43.240;0.070;2022-08-11T13:15:02;4.05;;;3.47;;
58727;SDS011;44505;43.240;0.070;2022-08-11T13:17:28;4.07;;;3.78;;
58727;SDS011;44505;43.240;0.070;2022-08-11T13:19:56;4.67;;;3.80;;
58727;SDS011;44505;43.240;0.070;2022-08-11T13:22:22;4.10;;;3.60;;
58727;SDS011;44505;43.240;0.070;2022-08-11T13:24:49;5.10;;;4.38;;
58727;SDS011;44505;43.240;0.070;2022-08-11T13:29:41;4.30;;;3.80;;
58727;SDS011;44505;43.240;0.070;2022-08-11T13:32:07;4.47;;;4.07;;
58727;SDS011;44505;43.240;0.070;2022-08-11T13:34:32;13.60;;;5.07;;
58727;SDS011;44505;43.240;0.070;2022-08-11T13:37:05;5.38;;;4.68;;
58727;SDS011;44505;43.240;0.070;2022-08-11T13:39:32;16.55;;;6.15;;
58727;SDS011;44505;43.240;0.070;2022-08-11T13:44:24;9.13;;;4.95;;
58727;SDS011;44505;43.240;0.070;2022-08-11T13:46:52;13.20;;;5.95;;
58727;SDS011;44505;43.240;0.070;2022-08-11T13:49:19;11.80;;;6.63;;
58727;SDS011;44505;43.240;0.070;2022-08-11T13:51:45;12.13;;;6.40;;
58727;SDS011;44505;43.240;0.070;2022-08-11T13:54:14;7.78;;;5.40;;
58727;SDS011;44505;43.240;0.070;2022-08-11T13:56:43;7.47;;;5.45;;
58727;SDS011;44505;43.240;0.070;2022-08-11T13:59:09;7.10;;;5.68;;
58727;SDS011;44505;43.240;0.070;2022-08-11T14:01:43;6.60;;;5.30;;
58727;SDS011;44505;43.240;0.070;2022-08-11T14:04:12;6.60;;;5.75;;
58727;SDS011;44505;43.240;0.070;2022-08-11T14:09:04;8.07;;;5.70;;
58727;SDS011;44505;43.240;0.070;2022-08-11T14:11:32;7.82;;;5.97;;
58727;SDS011;44505;43.240;0.070;2022-08-11T14:14:21;5.75;;;5.05;;
58727;SDS011;44505;43.240;0.070;2022-08-11T14:16:47;6.30;;;5.43;;
58727;SDS011;44505;43.240;0.070;2022-08-11T14:19:15;8.70;;;6.03;;
58727;SDS011;44505;43.240;0.070;2022-08-11T14:21:42;8.55;;;6.05;;
58727;SDS011;44505;43.240;0.070;2022-08-11T14:24:27;8.73;;;6.13;;
58727;SDS011;44505;43.240;0.070;2022-08-11T14:26:53;5.97;;;5.38;;
58727;SDS011;44505;43.240;0.070;2022-08-11T14:29:20;6.97;;;5.97;;
58727;SDS011;44505;43.240;0.070;2022-08-11T14:31:47;6.13;;;5.53;;
58727;SDS011;44505;43.240;0.070;2022-08-11T14:36:39;8.40;;;6.20;;
58727;SDS011;44505;43.240;0.070;2022-08-11T14:39:12;7.03;;;5.57;;
58727;SDS011;44505;43.240;0.070;2022-08-11T14:41:55;6.07;;;4.88;;
58727;SDS011;44505;43.240;0.070;2022-08-11T14:44:40;6.57;;;5.60;;
58727;SDS011;44505;43.240;0.070;2022-08-11T14:47:25;6.65;;;5.60;;
58727;SDS011;44505;43.240;0.070;2022-08-11T14:49:54;11.10;;;9.75;;
58727;SDS011;44505;43.240;0.070;2022-08-11T14:52:21;10.00;;;6.30;;
58727;SDS011;44505;43.240;0.070;2022-08-11T14:54:48;10.70;;;6.45;;
58727;SDS011;44505;43.240;0.070;2022-08-11T14:57:35;6.40;;;5.63;;
58727;SDS011;44505;43.240;0.070;2022-08-11T15:00:02;6.25;;;5.53;;
58727;SDS011;44505;43.240;0.070;2022-08-11T15:02:28;6.00;;;5.40;;
58727;SDS011;44505;43.240;0.070;2022-08-11T15:05:12;6.47;;;5.88;;
58727;SDS011;44505;43.240;0.070;2022-08-11T15:07:38;6.55;;;5.85;;
58727;SDS011;44505;43.240;0.070;2022-08-11T15:10:05;6.47;;;5.50;;
58727;SDS011;44505;43.240;0.070;2022-08-11T15:12:31;6.43;;;5.80;;
58727;SDS011;44505;43.240;0.070;2022-08-11T15:14:57;7.72;;;6.10;;
58727;SDS011;44505;43.240;0.070;2022-08-11T15:17:42;6.35;;;5.55;;
58727;SDS011;44505;43.240;0.070;2022-08-11T15:20:09;8.33;;;5.87;;
58727;SDS011;44505;43.240;0.070;2022-08-11T15:22:54;6.40;;;5.35;;
58727;SDS011;44505;43.240;0.070;2022-08-11T15:25:39;6.47;;;5.85;;
58727;SDS011;44505;43.240;0.070;2022-08-11T15:28:07;7.68;;;5.05;;
58727;SDS011;44505;43.240;0.070;2022-08-11T15:30:53;7.22;;;5.18;;
58727;SDS011;44505;43.240;0.070;2022-08-11T15:33:38;6.00;;;5.43;;
58727;SDS011;44505;43.240;0.070;2022-08-11T15:36:22;6.60;;;5.75;;
58727;SDS011;44505;43.240;0.070;2022-08-11T15:39:12;6.50;;;5.90;;
58727;SDS011;44505;43.240;0.070;2022-08-11T15:41:42;8.35;;;6.05;;
58727;SDS011;44505;43.240;0.070;2022-08-11T15:44:29;7.22;;;5.38;;
58727;SDS011;44505;43.240;0.070;2022-08-11T15:47:13;6.97;;;6.07;;
58727;SDS011;44505;43.240;0.070;2022-08-11T15:49:40;9.93;;;6.82;;
58727;SDS011;44505;43.240;0.070;2022-08-11T15:52:08;9.85;;;7.35;;
58727;SDS011;44505;43.240;0.070;2022-08-11T15:54:34;6.18;;;5.57;;
58727;SDS011;44505;43.240;0.070;2022-08-11T15:57:03;6.38;;;5.20;;
58727;SDS011;44505;43.240;0.070;2022-08-11T15:59:33;8.10;;;5.55;;
58727;SDS011;44505;43.240;0.070;2022-08-11T16:02:20;7.13;;;6.43;;
58727;SDS011;44505;43.240;0.070;2022-08-11T16:05:05;6.55;;;5.80;;
58727;SDS011;44505;43.240;0.070;2022-08-11T16:07:32;6.10;;;4.85;;
58727;SDS011;44505;43.240;0.070;2022-08-11T16:10:01;8.30;;;5.93;;
58727;SDS011;44505;43.240;0.070;2022-08-11T16:12:37;7.20;;;5.75;;
58727;SDS011;44505;43.240;0.070;2022-08-11T16:15:04;6.80;;;5.45;;
58727;SDS011;44505;43.240;0.070;2022-08-11T16:17:53;6.78;;;5.88;;
58727;SDS011;44505;43.240;0.070;2022-08-11T16:20:21;7.47;;;6.10;;
58727;SDS011;44505;43.240;0.070;2022-08-11T16:22:47;7.07;;;6.25;;
58727;SDS011;44505;43.240;0.070;2022-08-11T16:25:15;6.65;;;5.78;;
58727;SDS011;44505;43.240;0.070;2022-08-11T16:27:42;6.25;;;5.65;;
58727;SDS011;44505;43.240;0.070;2022-08-11T16:30:08;7.68;;;5.82;;
58727;SDS011;44505;43.240;0.070;2022-08-11T16:32:37;5.63;;;5.05;;
58727;SDS011;44505;43.240;0.070;2022-08-11T16:35:08;6.97;;;5.68;;
58727;SDS011;44505;43.240;0.070;2022-08-11T16:40:36;6.50;;;5.47;;
58727;SDS011;44505;43.240;0.070;2022-08-11T16:43:04;10.27;;;5.95;;
58727;SDS011;44505;43.240;0.070;2022-08-11T16:45:48;8.68;;;5.97;;
58727;SDS011;44505;43.240;0.070;2022-08-11T16:48:34;9.00;;;6.38;;
58727;SDS011;44505;43.240;0.070;2022-08-11T16:50:59;6.00;;;5.40;;
58727;SDS011;44505;43.240;0.070;2022-08-11T16:53:26;8.90;;;6.10;;
58727;SDS011;44505;43.240;0.070;2022-08-11T16:55:52;6.40;;;5.65;;
58727;SDS011;44505;43.240;0.070;2022-08-11T16:58:19;7.15;;;5.65;;
58727;SDS011;44505;43.240;0.070;2022-08-11T17:01:04;7.45;;;6.30;;
58727;SDS011;44505;43.240;0.070;2022-08-11T17:03:29;8.13;;;5.80;;
58727;SDS011;44505;43.240;0.070;2022-08-11T17:06:16;7.82;;;6.18;;
58727;SDS011;44505;43.240;0.070;2022-08-11T17:09:00;8.35;;;5.90;;
58727;SDS011;44505;43.240;0.070;2022-08-11T17:11:49;8.52;;;5.88;;
58727;SDS011;44505;43.240;0.070;2022-08-11T17:14:35;11.05;;;6.35;;
58727;SDS011;44505;43.240;0.070;2022-08-11T17:17:05;9.02;;;6.03;;
58727;SDS011;44505;43.240;0.070;2022-08-11T17:19:32;8.73;;;5.90;;
58727;SDS011;44505;43.240;0.070;2022-08-11T17:21:57;8.52;;;6.18;;
58727;SDS011;44505;43.240;0.070;2022-08-11T17:24:42;6.82;;;5.82;;
58727;SDS011;44505;43.240;0.070;2022-08-11T17:27:08;9.33;;;6.37;;
58727;SDS011;44505;43.240;0.070;2022-08-11T17:32:07;6.82;;;5.95;;
58727;SDS011;44505;43.240;0.070;2022-08-11T17:35:13;6.65;;;6.05;;
58727;SDS011;44505;43.240;0.070;2022-08-11T17:40:23;7.63;;;6.45;;
58727;SDS011;44505;43.240;0.070;2022-08-11T17:42:51;6.32;;;5.72;;
58727;SDS011;44505;43.240;0.070;2022-08-11T17:45:37;11.18;;;6.03;;
58727;SDS011;44505;43.240;0.070;2022-08-11T17:48:21;6.60;;;5.75;;
58727;SDS011;44505;43.240;0.070;2022-08-11T17:50:55;10.35;;;6.93;;
58727;SDS011;44505;43.240;0.070;2022-08-11T17:53:21;10.20;;;6.40;;
58727;SDS011;44505;43.240;0.070;2022-08-11T17:56:06;9.48;;;6.97;;
58727;SDS011;44505;43.240;0.070;2022-08-11T17:58:57;9.38;;;8.05;;
58727;SDS011;44505;43.240;0.070;2022-08-11T18:01:42;7.03;;;6.20;;
58727;SDS011;44505;43.240;0.070;2022-08-11T18:04:08;13.48;;;6.97;;
58727;SDS011;44505;43.240;0.070;2022-08-11T18:06:34;8.63;;;6.70;;
58727;SDS011;44505;43.240;0.070;2022-08-11T18:09:02;10.00;;;7.00;;
58727;SDS011;44505;43.240;0.070;2022-08-11T18:11:46;11.25;;;7.03;;
58727;SDS011;44505;43.240;0.070;2022-08-11T18:14:32;13.45;;;6.85;;
58727;SDS011;44505;43.240;0.070;2022-08-11T18:17:16;12.80;;;7.15;;
58727;SDS011;44505;43.240;0.070;2022-08-11T18:20:00;8.90;;;6.30;;
58727;SDS011;44505;43.240;0.070;2022-08-11T18:22:44;7.75;;;6.35;;
58727;SDS011;44505;43.240;0.070;2022-08-11T18:25:33;8.90;;;6.40;;
58727;SDS011;44505;43.240;0.070;2022-08-11T18:28:20;11.55;;;7.35;;
58727;SDS011;44505;43.240;0.070;2022-08-11T18:31:06;7.72;;;6.90;;
58727;SDS011;44505;43.240;0.070;2022-08-11T18:33:53;10.68;;;8.23;;
58727;SDS011;44505;43.240;0.070;2022-08-11T18:37:00;9.20;;;7.90;;
58727;SDS011;44505;43.240;0.070;2022-08-11T18:39:41;9.95;;;7.90;;
58727;SDS011;44505;43.240;0.070;2022-08-11T18:42:26;11.25;;;8.60;;
58727;SDS011;44505;43.240;0.070;2022-08-11T18:45:12;9.38;;;8.45;;
58727;SDS011;44505;43.240;0.070;2022-08-11T18:48:00;12.23;;;7.45;;
58727;SDS011;44505;43.240;0.070;2022-08-11T18:50:44;8.23;;;7.30;;
58727;SDS011;44505;43.240;0.070;2022-08-11T18:53:29;8.57;;;7.05;;
58727;SDS011;44505;43.240;0.070;2022-08-11T18:56:14;8.52;;;7.50;;
58727;SDS011;44505;43.240;0.070;2022-08-11T18:58:59;8.70;;;7.15;;
58727;SDS011;44505;43.240;0.070;2022-08-11T19:01:44;8.13;;;7.25;;
58727;SDS011;44505;43.240;0.070;2022-08-11T19:04:28;9.30;;;7.57;;
58727;SDS011;44505;43.240;0.070;2022-08-11T19:07:12;11.75;;;9.77;;
58727;SDS011;44505;43.240;0.070;2022-08-11T19:09:56;10.93;;;9.20;;
58727;SDS011;44505;43.240;0.070;2022-08-11T19:12:42;10.18;;;9.13;;